Time;durP1;ratioP1;P1;durP2;ratioP2;P2;SDS_P1;SDS_P2;PMS_P1;PMS_P2;Temp;Humidity;BMP_temperature;BMP_pressure;BME280_temperature;BME280_humidity;BME280_pressure;Samples;Min_cycle;Max_cycle;Signal;HPM_P1;HPM_P2
2023/06/08 00:02:17;;;;;;;;;;;24.00;59.10;;;;;;5063975;28;42853;-82
2023/06/08 00:04:44;;;;;;;;;;;24.00;58.70;;;;;;5061138;28;43920;-80
2023/06/08 00:07:14;;;;;;;;;;;24.10;59.20;;;;;;5050812;28;43083;-80
2023/06/08 00:09:40;;;;;;;;;;;24.00;59.20;;;;;;5054705;28;42942;-81
2023/06/08 00:12:06;;;;;;;;;;;24.00;59.10;;;;;;5063443;28;42903;-81
2023/06/08 00:14:32;;;;;;;;;;;24.00;59.20;;;;;;5063477;28;42980;-84
2023/06/08 00:16:57;;;;;;;;;;;24.00;59.20;;;;;;5063719;28;43003;-80
2023/06/08 00:19:24;;;;;;;;;;;24.00;58.80;;;;;;5062188;28;43456;-80
2023/06/08 00:21:50;;;;;;;;;;;24.00;58.90;;;;;;5063314;28;42964;-84
2023/06/08 00:24:19;;;;;;;;;;;24.00;59.50;;;;;;5033066;28;43738;-81
2023/06/08 00:26:45;;;;;;;;;;;24.00;59.40;;;;;;5036495;28;42937;-82
2023/06/08 00:29:10;;;;;;;;;;;24.10;59.60;;;;;;5020049;28;44566;-80
2023/06/08 00:31:36;;;;;;;;;;;24.00;59.60;;;;;;5036718;28;43529;-81
2023/06/08 00:34:02;;;;;;;;;;;24.00;59.60;;;;;;5038305;28;43009;-83
2023/06/08 00:36:27;;;;;;;;;;;24.10;59.80;;;;;;5037283;28;43086;-83
2023/06/08 00:38:53;;;;;;;;;;;24.10;59.30;;;;;;5038420;28;43419;-82
2023/06/08 00:41:18;;;;;;;;;;;24.10;59.80;;;;;;5032190;28;42947;-83
2023/06/08 00:43:45;;;;;;;;;;;24.10;59.70;;;;;;5041677;28;43034;-80
2023/06/08 00:46:12;;;;;;;;;;;24.10;59.70;;;;;;5025916;28;42999;-80
2023/06/08 00:48:38;;;;;;;;;;;24.00;59.20;;;;;;5026447;28;43808;-80
2023/06/08 00:51:04;;;;;;;;;;;24.10;59.80;;;;;;5038554;28;42940;-82
2023/06/08 00:53:31;;;;;;;;;;;24.00;59.80;;;;;;5045669;28;43022;-82
2023/06/08 00:55:57;;;;;;;;;;;24.10;59.90;;;;;;5036271;28;43093;-80
2023/06/08 00:58:22;;;;;;;;;;;24.00;59.50;;;;;;5007339;28;43004;-82
2023/06/08 01:00:48;;;;;;;;;;;24.00;59.40;;;;;;5045939;28;43252;-81
2023/06/08 01:03:19;;;;;;;;;;;24.10;59.90;;;;;;5044746;28;43039;-80
2023/06/08 01:05:44;;;;;;;;;;;24.10;59.90;;;;;;5026703;28;42871;-81
2023/06/08 01:08:13;;;;;;;;;;;24.00;59.90;;;;;;5026072;28;43546;-82
2023/06/08 01:10:42;;;;;;;;;;;24.10;59.80;;;;;;5044925;28;42916;-81
2023/06/08 01:13:21;;;;;;;;;;;24.10;59.80;;;;;;5032135;28;42837;-80
2023/06/08 01:15:51;;;;;;;;;;;24.10;59.80;;;;;;5021435;28;42845;-80
2023/06/08 01:18:18;;;;;;;;;;;24.10;59.80;;;;;;5017421;28;43051;-81
2023/06/08 01:20:53;;;;;;;;;;;24.10;59.70;;;;;;5034090;28;42878;-83
2023/06/08 01:23:25;;;;;;;;;;;24.10;59.80;;;;;;5042491;28;43058;-80
2023/06/08 01:25:52;;;;;;;;;;;24.10;59.80;;;;;;5035769;28;42967;-82
2023/06/08 01:28:17;;;;;;;;;;;24.10;59.80;;;;;;5041276;28;42944;-82
2023/06/08 01:30:44;;;;;;;;;;;24.10;59.80;;;;;;5035518;28;42936;-80
2023/06/08 01:33:12;;;;;;;;;;;24.10;59.80;;;;;;5044966;28;43008;-80
2023/06/08 01:35:37;;;;;;;;;;;24.10;59.80;;;;;;5035383;28;42890;-80
2023/06/08 01:38:06;;;;;;;;;;;24.10;59.90;;;;;;5041984;28;43704;-80
2023/06/08 01:40:37;;;;;;;;;;;24.10;59.90;;;;;;5033579;28;43011;-82
2023/06/08 01:43:05;;;;;;;;;;;24.10;59.80;;;;;;5023921;28;43063;-83
2023/06/08 01:45:36;;;;;;;;;;;24.10;59.80;;;;;;5025605;28;43044;-80
2023/06/08 01:48:03;;;;;;;;;;;24.10;59.30;;;;;;5044944;28;42960;-82
2023/06/08 01:50:29;;;;;;;;;;;24.10;59.70;;;;;;5028732;28;43306;-80
2023/06/08 01:52:56;;;;;;;;;;;24.10;59.80;;;;;;5026206;28;43993;-81
2023/06/08 01:55:22;;;;;;;;;;;24.10;59.70;;;;;;5031907;28;43010;-81
2023/06/08 01:57:48;;;;;;;;;;;24.00;59.20;;;;;;5041194;28;43332;-81
2023/06/08 02:00:15;;;;;;;;;;;24.10;59.80;;;;;;5032238;28;42933;-80
2023/06/08 02:02:41;;;;;;;;;;;24.10;59.80;;;;;;5031536;28;42967;-80
2023/06/08 02:05:10;;;;;;;;;;;24.10;59.80;;;;;;5037556;28;42921;-81
2023/06/08 02:07:36;;;;;;;;;;;24.10;59.80;;;;;;5026079;28;44024;-82
2023/06/08 02:10:05;;;;;;;;;;;24.10;59.80;;;;;;5036923;28;42928;-83
2023/06/08 02:12:31;;;;;;;;;;;24.10;59.80;;;;;;5021340;28;43387;-80
2023/06/08 02:14:57;;;;;;;;;;;24.10;59.80;;;;;;5003789;28;43116;-79
2023/06/08 02:17:27;;;;;;;;;;;24.10;59.90;;;;;;5024397;28;42934;-82
2023/06/08 02:19:53;;;;;;;;;;;24.10;59.40;;;;;;5015180;28;42935;-81
2023/06/08 02:22:18;;;;;;;;;;;24.10;60.00;;;;;;5037250;28;43322;-80
2023/06/08 02:24:44;;;;;;;;;;;24.10;59.90;;;;;;5024310;28;42918;-80
2023/06/08 02:27:09;;;;;;;;;;;24.10;60.00;;;;;;5024097;28;42935;-80
2023/06/08 02:29:35;;;;;;;;;;;24.00;59.50;;;;;;5022504;28;43138;-80
2023/06/08 02:32:01;;;;;;;;;;;24.00;60.00;;;;;;5024514;28;42980;-81
2023/06/08 02:34:26;;;;;;;;;;;24.00;59.40;;;;;;5003209;28;42862;-82
2023/06/08 02:36:52;;;;;;;;;;;24.10;59.90;;;;;;5024151;28;43505;-82
2023/06/08 02:39:17;;;;;;;;;;;24.10;59.90;;;;;;5023366;28;42952;-83
2023/06/08 02:41:43;;;;;;;;;;;24.10;60.00;;;;;;5023922;28;42988;-80
2023/06/08 02:44:08;;;;;;;;;;;24.10;60.00;;;;;;5024050;28;43430;-80
2023/06/08 02:46:34;;;;;;;;;;;24.10;60.00;;;;;;5024261;28;43502;-81
2023/06/08 02:49:00;;;;;;;;;;;24.10;60.00;;;;;;5021983;28;42981;-81
2023/06/08 02:51:26;;;;;;;;;;;24.10;60.00;;;;;;5022783;28;43971;-81
2023/06/08 02:53:51;;;;;;;;;;;24.10;59.90;;;;;;5023349;28;42985;-80
2023/06/08 02:56:17;;;;;;;;;;;24.10;59.90;;;;;;5024181;28;43385;-80
2023/06/08 02:58:46;;;;;;;;;;;24.10;60.00;;;;;;5022745;28;43058;-81
2023/06/08 03:01:14;;;;;;;;;;;24.10;59.90;;;;;;5023614;28;43757;-81
2023/06/08 03:03:44;;;;;;;;;;;24.10;59.90;;;;;;5021113;28;43148;-82
2023/06/08 03:06:12;;;;;;;;;;;24.10;59.90;;;;;;5023597;28;43698;-83
2023/06/08 03:08:38;;;;;;;;;;;24.10;59.90;;;;;;5024035;28;42943;-80
2023/06/08 03:11:04;;;;;;;;;;;24.10;59.90;;;;;;5005475;28;44032;-80
2023/06/08 03:13:29;;;;;;;;;;;24.10;59.80;;;;;;5020723;28;43235;-81
2023/06/08 03:15:55;;;;;;;;;;;24.10;59.80;;;;;;5024075;28;44166;-81
2023/06/08 03:18:22;;;;;;;;;;;24.10;59.30;;;;;;5023792;28;44103;-82
2023/06/08 03:20:51;;;;;;;;;;;24.10;59.30;;;;;;5023420;28;44513;-83
2023/06/08 03:23:22;;;;;;;;;;;24.10;59.70;;;;;;5036935;28;42916;-82
2023/06/08 03:25:51;;;;;;;;;;;24.10;59.80;;;;;;5064396;28;42925;-80
2023/06/08 03:28:17;;;;;;;;;;;24.10;59.70;;;;;;5062371;28;43075;-80
2023/06/08 03:30:43;;;;;;;;;;;24.10;59.80;;;;;;5062704;28;43878;-82
2023/06/08 03:33:10;;;;;;;;;;;24.10;59.70;;;;;;5062727;28;43041;-83
2023/06/08 03:35:36;;;;;;;;;;;24.10;59.60;;;;;;5065800;28;43218;-81
2023/06/08 03:38:01;;;;;;;;;;;24.10;59.10;;;;;;5046036;28;42939;-80
2023/06/08 03:40:27;;;;;;;;;;;24.10;59.70;;;;;;5063343;28;42872;-81
2023/06/08 03:42:52;;;;;;;;;;;24.00;59.10;;;;;;5063396;28;43033;-80
2023/06/08 03:45:18;;;;;;;;;;;24.10;59.80;;;;;;5063363;28;43031;-83
2023/06/08 03:47:43;;;;;;;;;;;24.10;59.70;;;;;;5063606;28;42973;-81
2023/06/08 03:50:11;;;;;;;;;;;24.10;59.80;;;;;;5058677;28;43044;-83
2023/06/08 03:52:38;;;;;;;;;;;24.10;59.80;;;;;;5061531;28;43106;-81
2023/06/08 03:55:07;;;;;;;;;;;24.10;59.90;;;;;;5052586;28;43294;-83
2023/06/08 03:57:32;;;;;;;;;;;24.10;60.00;;;;;;5062544;28;43212;-84
2023/06/08 03:59:58;;;;;;;;;;;24.10;60.10;;;;;;5040646;28;45633;-83
2023/06/08 04:02:23;;;;;;;;;;;24.10;60.00;;;;;;5060445;28;42993;-79
2023/06/08 04:04:49;;;;;;;;;;;24.00;59.50;;;;;;5059320;28;44199;-81
2023/06/08 04:07:16;;;;;;;;;;;24.00;59.60;;;;;;5044091;28;43343;-79
2023/06/08 04:09:42;;;;;;;;;;;24.10;60.10;;;;;;5058040;28;43801;-81
2023/06/08 04:12:08;;;;;;;;;;;24.10;60.20;;;;;;5062491;28;43302;-82
2023/06/08 04:14:33;;;;;;;;;;;24.10;60.00;;;;;;5063580;27;44243;-83
2023/06/08 04:16:59;;;;;;;;;;;24.00;59.50;;;;;;5066731;28;43231;-82
2023/06/08 04:19:25;;;;;;;;;;;24.10;59.90;;;;;;5066624;28;43611;-82
2023/06/08 04:21:56;;;;;;;;;;;24.00;59.30;;;;;;5066722;28;43007;-82
2023/06/08 04:24:24;;;;;;;;;;;24.10;59.80;;;;;;5066072;28;42865;-81
2023/06/08 04:26:50;;;;;;;;;;;24.10;59.30;;;;;;5060449;28;43110;-82
2023/06/08 04:29:16;;;;;;;;;;;24.10;59.40;;;;;;5065920;28;43756;-84
2023/06/08 04:31:42;;;;;;;;;;;24.10;59.90;;;;;;5059412;28;43069;-82
2023/06/08 04:34:08;;;;;;;;;;;24.10;59.80;;;;;;5059545;28;43119;-83
2023/06/08 04:36:34;;;;;;;;;;;24.10;59.80;;;;;;5045693;28;43166;-83
2023/06/08 04:39:00;;;;;;;;;;;24.10;59.90;;;;;;5064948;28;43023;-82
2023/06/08 04:41:29;;;;;;;;;;;24.10;59.90;;;;;;5064546;28;43361;-80
2023/06/08 04:43:55;;;;;;;;;;;24.10;59.40;;;;;;5066261;28;43986;-84
2023/06/08 04:46:25;;;;;;;;;;;24.10;59.90;;;;;;5065715;28;42994;-79
2023/06/08 04:48:51;;;;;;;;;;;24.10;60.00;;;;;;5065812;28;42950;-80
2023/06/08 04:51:17;;;;;;;;;;;24.10;60.20;;;;;;5054888;28;43027;-80
2023/06/08 04:53:43;;;;;;;;;;;24.10;60.20;;;;;;5065720;28;43074;-87
2023/06/08 04:56:13;;;;;;;;;;;24.00;59.60;;;;;;5035705;28;42853;-86
2023/06/08 04:58:38;;;;;;;;;;;24.10;60.40;;;;;;5064847;28;43305;-87
2023/06/08 05:01:04;;;;;;;;;;;24.00;59.70;;;;;;5060747;28;43203;-86
2023/06/08 05:03:29;;;;;;;;;;;24.00;59.70;;;;;;5064138;28;43441;-82
2023/06/08 05:05:55;;;;;;;;;;;24.00;60.30;;;;;;5054902;28;43733;-83
2023/06/08 05:08:21;;;;;;;;;;;24.00;60.30;;;;;;5052916;28;43612;-83
2023/06/08 05:10:47;;;;;;;;;;;24.00;60.30;;;;;;5065092;28;42916;-87
2023/06/08 05:13:12;;;;;;;;;;;24.00;60.40;;;;;;5057603;28;43059;-82
2023/06/08 05:15:38;;;;;;;;;;;24.00;59.80;;;;;;5059240;28;43650;-82
2023/06/08 05:18:03;;;;;;;;;;;24.10;60.40;;;;;;5065151;28;43596;-83
2023/06/08 05:20:29;;;;;;;;;;;24.00;60.50;;;;;;5066237;28;43051;-81
2023/06/08 05:22:55;;;;;;;;;;;24.00;59.90;;;;;;5064017;28;44196;-82
2023/06/08 05:25:20;;;;;;;;;;;24.00;59.90;;;;;;5061450;28;43025;-94
2023/06/08 05:27:46;;;;;;;;;;;24.00;59.90;;;;;;5035960;28;42951;-93
2023/06/08 05:30:12;;;;;;;;;;;24.00;59.90;;;;;;5040121;28;43393;-91
2023/06/08 05:32:40;;;;;;;;;;;24.10;59.80;;;;;;5044836;28;44400;-92
2023/06/08 05:35:08;;;;;;;;;;;24.10;59.80;;;;;;5066410;28;42893;-93
2023/06/08 05:37:33;;;;;;;;;;;24.10;59.90;;;;;;5030975;28;43412;-92
2023/06/08 05:39:59;;;;;;;;;;;24.10;59.90;;;;;;5056878;28;42932;-90
2023/06/08 05:42:25;;;;;;;;;;;;;;;;;;5041468;28;44239;-91
2023/06/08 05:44:53;;;;;;;;;;;24.10;59.90;;;;;;5035819;28;43023;-92
2023/06/08 05:47:19;;;;;;;;;;;24.10;59.90;;;;;;5047330;28;44827;-81
2023/06/08 05:49:45;;;;;;;;;;;24.10;59.90;;;;;;5055888;28;43026;-80
2023/06/08 05:52:10;;;;;;;;;;;24.00;59.90;;;;;;5059600;28;43365;-81
2023/06/08 05:54:36;;;;;;;;;;;24.10;60.60;;;;;;5064495;28;42902;-81
2023/06/08 05:57:01;;;;;;;;;;;24.10;60.00;;;;;;5060691;28;43107;-80
2023/06/08 05:59:27;;;;;;;;;;;24.10;61.30;;;;;;5059533;28;42948;-81
2023/06/08 06:01:53;;;;;;;;;;;24.10;60.80;;;;;;5065249;28;42832;-82
2023/06/08 06:04:18;;;;;;;;;;;24.00;61.70;;;;;;5066029;28;42975;-78
2023/06/08 06:06:44;;;;;;;;;;;24.00;59.80;;;;;;5065166;28;44025;-89
2023/06/08 06:09:11;;;;;;;;;;;24.10;59.90;;;;;;5057248;28;43096;-77
2023/06/08 06:11:37;;;;;;;;;;;24.10;59.40;;;;;;5060384;28;43283;-78
2023/06/08 06:14:02;;;;;;;;;;;24.10;59.70;;;;;;5065256;28;43015;-78
2023/06/08 06:16:28;;;;;;;;;;;24.10;59.50;;;;;;5065341;28;43497;-83
2023/06/08 06:18:53;;;;;;;;;;;24.00;58.80;;;;;;5065420;28;42990;-84
2023/06/08 06:21:19;;;;;;;;;;;24.00;58.80;;;;;;5065428;28;42995;-81
2023/06/08 06:23:45;;;;;;;;;;;24.00;59.50;;;;;;5065199;28;42924;-80
2023/06/08 06:26:11;;;;;;;;;;;24.00;59.60;;;;;;5065302;28;42892;-80
2023/06/08 06:28:38;;;;;;;;;;;24.00;59.40;;;;;;5065427;28;42714;-80
2023/06/08 06:31:03;;;;;;;;;;;24.00;59.20;;;;;;5064968;28;43635;-80
2023/06/08 06:33:29;;;;;;;;;;;24.00;59.20;;;;;;5065123;28;42958;-80
2023/06/08 06:35:55;;;;;;;;;;;24.00;59.40;;;;;;5064810;28;43882;-80
2023/06/08 06:38:20;;;;;;;;;;;24.00;59.20;;;;;;5065007;28;42976;-80
2023/06/08 06:40:49;;;;;;;;;;;24.00;59.30;;;;;;5063057;28;42958;-80
2023/06/08 06:43:14;;;;;;;;;;;24.00;59.20;;;;;;5064873;28;42916;-80
2023/06/08 06:45:40;;;;;;;;;;;24.00;59.20;;;;;;5064479;28;43490;-80
2023/06/08 06:48:05;;;;;;;;;;;24.00;59.30;;;;;;5065384;28;42925;-80
2023/06/08 06:50:31;;;;;;;;;;;24.00;59.30;;;;;;5051722;28;42950;-81
2023/06/08 06:52:56;;;;;;;;;;;24.10;59.40;;;;;;5046512;28;42872;-80
2023/06/08 06:55:22;;;;;;;;;;;24.00;59.50;;;;;;5064735;28;43723;-81
2023/06/08 06:57:48;;;;;;;;;;;24.00;59.40;;;;;;5065118;28;42945;-80
2023/06/08 07:00:14;;;;;;;;;;;24.00;59.30;;;;;;5064855;28;43421;-80
2023/06/08 07:02:40;;;;;;;;;;;24.00;59.30;;;;;;5064391;28;42967;-80
2023/06/08 07:05:07;;;;;;;;;;;24.00;58.80;;;;;;5064022;28;43557;-79
2023/06/08 07:07:33;;;;;;;;;;;24.00;59.30;;;;;;5064710;28;42867;-80
2023/06/08 07:09:58;;;;;;;;;;;24.10;59.30;;;;;;5064412;28;43008;-79
2023/06/08 07:12:24;;;;;;;;;;;24.10;59.30;;;;;;5064402;28;42944;-80
2023/06/08 07:14:49;;;;;;;;;;;24.00;59.20;;;;;;5064516;28;43473;-80
2023/06/08 07:17:15;;;;;;;;;;;24.00;59.10;;;;;;5064299;28;43009;-81
2023/06/08 07:19:41;;;;;;;;;;;24.10;59.10;;;;;;5063910;28;43570;-80
2023/06/08 07:22:06;;;;;;;;;;;24.00;59.00;;;;;;5064685;28;42904;-80
2023/06/08 07:24:32;;;;;;;;;;;24.00;59.00;;;;;;5064379;28;43022;-80
2023/06/08 07:26:58;;;;;;;;;;;24.00;59.00;;;;;;5064750;28;42876;-80
2023/06/08 07:29:23;;;;;;;;;;;24.10;59.10;;;;;;5064645;28;43175;-80
2023/06/08 07:31:49;;;;;;;;;;;24.10;59.10;;;;;;5064572;28;42880;-80
2023/06/08 07:34:15;;;;;;;;;;;24.10;59.10;;;;;;5064109;28;43387;-80
2023/06/08 07:36:40;;;;;;;;;;;24.10;59.10;;;;;;5064333;28;43087;-79
2023/06/08 07:39:05;;;;;;;;;;;24.00;59.00;;;;;;5064568;28;42769;-80
2023/06/08 07:41:31;;;;;;;;;;;24.00;58.50;;;;;;5064510;28;42891;-80
2023/06/08 07:43:57;;;;;;;;;;;24.10;58.60;;;;;;5046586;28;44443;-80
2023/06/08 07:46:23;;;;;;;;;;;24.10;59.10;;;;;;5064573;28;43068;-81
2023/06/08 07:48:49;;;;;;;;;;;24.10;59.10;;;;;;5066370;28;43556;-79
2023/06/08 07:51:14;;;;;;;;;;;24.10;59.10;;;;;;5057849;28;42989;-80
2023/06/08 07:53:40;;;;;;;;;;;24.10;59.20;;;;;;5057670;28;43645;-80
2023/06/08 07:56:05;;;;;;;;;;;24.10;59.20;;;;;;5069486;28;43019;-81
2023/06/08 07:58:31;;;;;;;;;;;24.10;59.20;;;;;;5071199;28;43508;-80
2023/06/08 08:00:57;;;;;;;;;;;24.10;59.20;;;;;;5070969;28;42888;-80
2023/06/08 08:03:23;;;;;;;;;;;24.10;59.20;;;;;;5070609;28;42927;-80
2023/06/08 08:05:49;;;;;;;;;;;24.10;59.20;;;;;;5070295;28;43482;-81
2023/06/08 08:08:15;;;;;;;;;;;24.10;59.10;;;;;;5070701;28;43702;-79
2023/06/08 08:10:41;;;;;;;;;;;24.10;59.20;;;;;;5070602;28;42943;-79
2023/06/08 08:13:07;;;;;;;;;;;24.10;59.30;;;;;;5070633;28;42938;-80
2023/06/08 08:15:33;;;;;;;;;;;24.10;59.30;;;;;;5070697;28;43222;-80
2023/06/08 08:17:58;;;;;;;;;;;24.10;59.30;;;;;;5070382;28;42942;-80
2023/06/08 08:20:24;;;;;;;;;;;24.10;59.30;;;;;;5070776;28;42939;-80
2023/06/08 08:22:49;;;;;;;;;;;24.10;59.30;;;;;;5070020;28;43000;-80
2023/06/08 08:25:15;;;;;;;;;;;24.10;59.30;;;;;;5069536;28;42789;-79
2023/06/08 08:27:40;;;;;;;;;;;24.10;58.80;;;;;;5070385;28;42882;-80
2023/06/08 08:30:06;;;;;;;;;;;24.10;59.30;;;;;;5070109;28;42961;-81
2023/06/08 08:32:32;;;;;;;;;;;24.10;59.40;;;;;;5070790;28;43460;-80
2023/06/08 08:34:57;;;;;;;;;;;24.10;59.40;;;;;;5070543;28;43704;-80
2023/06/08 08:37:23;;;;;;;;;;;24.10;59.00;;;;;;5070095;28;42774;-80
2023/06/08 08:39:48;;;;;;;;;;;24.10;59.50;;;;;;5069860;28;42949;-81
2023/06/08 08:42:18;;;;;;;;;;;24.10;59.00;;;;;;5070203;28;42869;-81
2023/06/08 08:44:45;;;;;;;;;;;24.10;59.50;;;;;;5069951;28;42918;-81
2023/06/08 08:47:13;;;;;;;;;;;24.10;59.20;;;;;;5070296;28;43521;-81
2023/06/08 08:49:42;;;;;;;;;;;24.10;59.70;;;;;;5063485;28;42953;-80
2023/06/08 08:52:08;;;;;;;;;;;24.10;59.60;;;;;;5063297;28;43686;-80
2023/06/08 08:54:34;;;;;;;;;;;24.20;59.80;;;;;;5070782;28;43476;-80
2023/06/08 08:57:00;;;;;;;;;;;24.10;59.30;;;;;;5070086;28;43436;-80
2023/06/08 08:59:29;;;;;;;;;;;24.10;59.70;;;;;;5054301;28;43947;-81
2023/06/08 09:01:55;;;;;;;;;;;24.10;59.70;;;;;;5055609;28;43014;-80
2023/06/08 09:04:20;;;;;;;;;;;24.10;59.80;;;;;;5055593;28;43033;-79
2023/06/08 09:06:49;;;;;;;;;;;24.10;59.40;;;;;;5063084;28;43393;-79
2023/06/08 09:09:15;;;;;;;;;;;24.10;59.40;;;;;;5065297;28;43420;-80
2023/06/08 09:11:59;;;;;;;;;;;24.10;59.90;;;;;;5058323;28;43491;-81
2023/06/08 09:14:25;;;;;;;;;;;24.10;59.80;;;;;;5064181;28;42973;-80
2023/06/08 09:16:52;;;;;;;;;;;24.10;59.80;;;;;;5065613;28;43566;-80
2023/06/08 09:19:18;;;;;;;;;;;24.10;59.80;;;;;;5064777;28;43578;-80
2023/06/08 09:21:44;;;;;;;;;;;24.10;59.80;;;;;;5052750;28;43442;-79
2023/06/08 09:24:12;;;;;;;;;;;24.20;59.80;;;;;;5030160;28;43004;-80
2023/06/08 09:26:55;;;;;;;;;;;24.10;59.30;;;;;;5035872;28;43701;-79
2023/06/08 09:29:38;;;;;;;;;;;24.20;60.40;;;;;;5033771;28;42951;-79
2023/06/08 09:32:04;;;;;;;;;;;24.10;59.70;;;;;;5026920;28;43462;-80
2023/06/08 09:34:30;;;;;;;;;;;24.20;59.60;;;;;;5027405;28;43034;-79
2023/06/08 09:37:06;;;;;;;;;;;24.20;59.20;;;;;;5027095;28;43271;-79
2023/06/08 09:39:38;;;;;;;;;;;24.20;59.10;;;;;;5029337;28;42974;-79
2023/06/08 09:42:05;;;;;;;;;;;24.20;59.50;;;;;;5027214;28;43573;-80
2023/06/08 09:44:31;;;;;;;;;;;24.10;59.00;;;;;;5029143;28;42906;-79
2023/06/08 09:46:57;;;;;;;;;;;24.20;59.60;;;;;;5026455;28;43668;-79
2023/06/08 09:49:22;;;;;;;;;;;24.20;59.10;;;;;;5041956;28;42966;-79
2023/06/08 09:51:49;;;;;;;;;;;24.10;59.50;;;;;;5045228;28;43668;-78
2023/06/08 09:54:15;;;;;;;;;;;24.20;59.50;;;;;;5043228;28;43002;-79
2023/06/08 09:56:44;;;;;;;;;;;24.20;59.50;;;;;;5043573;28;44292;-80
2023/06/08 09:59:13;;;;;;;;;;;24.20;58.90;;;;;;5042459;28;43247;-79
2023/06/08 10:01:41;;;;;;;;;;;24.20;59.40;;;;;;5043776;28;43909;-84
2023/06/08 10:04:22;;;;;;;;;;;24.20;59.20;;;;;;5040386;28;43070;-79
2023/06/08 10:06:50;;;;;;;;;;;24.20;59.10;;;;;;5039971;28;43601;-79
2023/06/08 10:09:15;;;;;;;;;;;24.20;59.10;;;;;;5040217;28;43190;-80
2023/06/08 10:11:41;;;;;;;;;;;24.20;59.10;;;;;;5038069;28;43470;-80
2023/06/08 10:14:07;;;;;;;;;;;24.20;59.10;;;;;;5040596;28;43003;-78
2023/06/08 10:16:32;;;;;;;;;;;24.20;59.10;;;;;;5039178;28;42934;-81
2023/06/08 10:18:58;;;;;;;;;;;24.20;59.10;;;;;;5041697;28;43293;-79
2023/06/08 10:21:24;;;;;;;;;;;24.30;59.20;;;;;;5044912;28;42954;-80
2023/06/08 10:23:50;;;;;;;;;;;24.30;59.20;;;;;;5044555;28;42925;-79
2023/06/08 10:26:17;;;;;;;;;;;24.30;59.20;;;;;;5044714;28;43012;-79
2023/06/08 10:29:02;;;;;;;;;;;24.20;58.70;;;;;;5044973;28;43182;-79
2023/06/08 10:31:32;;;;;;;;;;;24.30;58.80;;;;;;5030962;28;43563;-81
2023/06/08 10:33:58;;;;;;;;;;;24.30;59.20;;;;;;5037082;28;43023;-80
2023/06/08 10:36:33;;;;;;;;;;;24.20;58.70;;;;;;5029997;28;44475;-76
2023/06/08 10:39:00;;;;;;;;;;;24.30;59.30;;;;;;5038630;28;42942;-76
2023/06/08 10:41:45;;;;;;;;;;;24.20;59.30;;;;;;5044024;28;43002;-74
2023/06/08 10:44:25;;;;;;;;;;;24.20;59.30;;;;;;5043178;28;42899;-77
2023/06/08 10:46:59;;;;;;;;;;;24.20;59.00;;;;;;5044083;28;43847;-76
2023/06/08 10:49:48;;;;;;;;;;;24.20;59.40;;;;;;5042565;28;42954;-76
2023/06/08 10:52:19;;;;;;;;;;;24.20;59.40;;;;;;5030340;28;43158;-75
2023/06/08 10:54:56;;;;;;;;;;;24.20;59.40;;;;;;5040487;28;42882;-75
2023/06/08 10:57:40;;;;;;;;;;;24.20;59.40;;;;;;5040090;28;44479;-75
2023/06/08 11:00:42;;;;;;;;;;;24.20;59.40;;;;;;5032795;28;43066;-75
2023/06/08 11:03:08;;;;;;;;;;;24.20;59.30;;;;;;5013105;28;43420;-76
2023/06/08 11:05:35;;;;;;;;;;;24.20;58.80;;;;;;5044147;28;42930;-76
2023/06/08 11:08:01;;;;;;;;;;;24.20;59.20;;;;;;5040285;28;43665;-75
2023/06/08 11:10:27;;;;;;;;;;;24.30;59.20;;;;;;5039038;28;44111;-75
2023/06/08 11:12:53;;;;;;;;;;;24.20;58.70;;;;;;5037309;28;43504;-80
2023/06/08 11:15:19;;;;;;;;;;;24.20;59.20;;;;;;5023766;28;42989;-80
2023/06/08 11:17:50;;;;;;;;;;;24.30;59.40;;;;;;5041080;28;43075;-80
2023/06/08 11:20:16;;;;;;;;;;;24.20;58.90;;;;;;5040964;28;43122;-81
2023/06/08 11:22:41;;;;;;;;;;;24.30;59.50;;;;;;5041634;28;43412;-80
2023/06/08 11:25:07;;;;;;;;;;;24.30;59.30;;;;;;5040465;28;43034;-79
2023/06/08 11:27:33;;;;;;;;;;;24.40;59.70;;;;;;5042219;28;42894;-80
2023/06/08 11:29:58;;;;;;;;;;;24.40;60.10;;;;;;5038733;28;43047;-80
2023/06/08 11:32:30;;;;;;;;;;;24.40;60.40;;;;;;5042430;28;43505;-80
2023/06/08 11:34:56;;;;;;;;;;;24.30;60.70;;;;;;5042514;28;42989;-79
2023/06/08 11:37:21;;;;;;;;;;;24.40;60.70;;;;;;5043126;28;43731;-79
2023/06/08 11:39:47;;;;;;;;;;;24.30;60.30;;;;;;5035737;28;42957;-78
2023/06/08 11:42:13;;;;;;;;;;;24.30;61.10;;;;;;5025349;28;44537;-79
2023/06/08 11:44:41;;;;;;;;;;;24.30;60.70;;;;;;5043894;28;43014;-79
2023/06/08 11:47:09;;;;;;;;;;;24.20;60.80;;;;;;5023565;28;43073;-79
2023/06/08 11:49:51;;;;;;;;;;;24.20;60.90;;;;;;5030231;28;43079;-82
2023/06/08 11:52:20;;;;;;;;;;;24.30;61.50;;;;;;5036590;28;43367;-80
2023/06/08 11:54:46;;;;;;;;;;;24.30;61.70;;;;;;5043356;28;42915;-79
2023/06/08 11:57:11;;;;;;;;;;;24.30;61.80;;;;;;5042158;28;42918;-79
2023/06/08 11:59:37;;;;;;;;;;;24.30;61.90;;;;;;5042150;28;43108;-79
2023/06/08 12:02:06;;;;;;;;;;;24.30;62.00;;;;;;5022943;28;43670;-79
2023/06/08 12:04:34;;;;;;;;;;;24.30;61.80;;;;;;5042116;28;42945;-79
2023/06/08 12:07:07;;;;;;;;;;;24.30;61.80;;;;;;5038420;28;43538;-80
2023/06/08 12:09:33;;;;;;;;;;;24.30;61.70;;;;;;5038493;28;43029;-78
2023/06/08 12:12:07;;;;;;;;;;;24.70;61.90;;;;;;5038205;28;43372;-79
2023/06/08 12:14:34;;;;;;;;;;;24.30;61.50;;;;;;5040156;28;43226;-79
2023/06/08 12:17:02;;;;;;;;;;;24.30;61.40;;;;;;5040445;28;43584;-79
2023/06/08 12:19:31;;;;;;;;;;;24.30;60.80;;;;;;5041359;28;43008;-80
2023/06/08 12:21:57;;;;;;;;;;;24.30;60.80;;;;;;5040510;28;43610;-82
2023/06/08 12:24:22;;;;;;;;;;;24.30;61.30;;;;;;5039926;28;43095;-78
2023/06/08 12:26:51;;;;;;;;;;;24.30;61.10;;;;;;5029874;28;43455;-78
2023/06/08 12:29:18;;;;;;;;;;;24.30;61.00;;;;;;5039360;28;43159;-80
2023/06/08 12:31:46;;;;;;;;;;;24.30;60.30;;;;;;5027214;28;43850;-80
2023/06/08 12:34:11;;;;;;;;;;;24.30;61.00;;;;;;5031008;28;43342;-79
2023/06/08 12:36:37;;;;;;;;;;;24.30;60.30;;;;;;5045103;28;43423;-79
2023/06/08 12:39:03;;;;;;;;;;;24.30;60.30;;;;;;5044673;28;43007;-81
2023/06/08 12:41:29;;;;;;;;;;;24.30;61.00;;;;;;5040290;28;43031;-80
2023/06/08 12:43:54;;;;;;;;;;;24.30;60.20;;;;;;5044079;28;43043;-79
2023/06/08 12:46:21;;;;;;;;;;;24.40;60.30;;;;;;5033556;28;43644;-80
2023/06/08 12:48:47;;;;;;;;;;;24.40;60.30;;;;;;5025837;28;43067;-79
2023/06/08 12:51:14;;;;;;;;;;;24.40;60.00;;;;;;5037038;28;43493;-79
2023/06/08 12:53:39;;;;;;;;;;;24.40;60.60;;;;;;5045718;28;43115;-79
2023/06/08 12:56:05;;;;;;;;;;;24.40;60.20;;;;;;5027780;28;43101;-79
2023/06/08 12:58:31;;;;;;;;;;;24.30;60.00;;;;;;5045621;28;42904;-80
2023/06/08 13:00:56;;;;;;;;;;;24.40;60.80;;;;;;5032927;28;43229;-79
2023/06/08 13:03:22;;;;;;;;;;;24.40;60.70;;;;;;5044232;28;42983;-79
2023/06/08 13:05:53;;;;;;;;;;;24.50;60.70;;;;;;5032146;28;43488;-79
2023/06/08 13:08:18;;;;;;;;;;;24.40;60.50;;;;;;5045168;28;42901;-79
2023/06/08 13:10:44;;;;;;;;;;;24.30;60.60;;;;;;5036682;28;43043;-79
2023/06/08 13:13:10;;;;;;;;;;;24.40;60.60;;;;;;5044996;28;43667;-78
2023/06/08 13:15:36;;;;;;;;;;;24.40;60.40;;;;;;5038909;28;43559;-80
2023/06/08 13:18:03;;;;;;;;;;;24.30;59.80;;;;;;5045815;28;43230;-81
2023/06/08 13:20:28;;;;;;;;;;;24.30;59.70;;;;;;5045481;28;42895;-81
2023/06/08 13:22:54;;;;;;;;;;;24.30;59.60;;;;;;5044704;28;43036;-80
2023/06/08 13:25:20;;;;;;;;;;;24.30;59.50;;;;;;5037197;28;43526;-80
2023/06/08 13:27:46;;;;;;;;;;;24.30;60.00;;;;;;5034282;28;43067;-79
2023/06/08 13:30:11;;;;;;;;;;;24.30;59.30;;;;;;5022748;28;43794;-80
2023/06/08 13:32:37;;;;;;;;;;;24.30;59.30;;;;;;5045303;28;43022;-79
2023/06/08 13:35:03;;;;;;;;;;;24.30;59.70;;;;;;5043490;28;44690;-79
2023/06/08 13:37:35;;;;;;;;;;;24.30;59.60;;;;;;5044712;28;43205;-79
2023/06/08 13:40:01;;;;;;;;;;;24.30;58.90;;;;;;5045007;28;43964;-80
2023/06/08 13:42:34;;;;;;;;;;;24.40;58.90;;;;;;5045143;28;42966;-81
2023/06/08 13:45:00;;;;;;;;;;;24.40;59.40;;;;;;5043243;28;43360;-80
2023/06/08 13:47:25;;;;;;;;;;;24.30;58.80;;;;;;5044337;28;42917;-79
2023/06/08 13:49:51;;;;;;;;;;;24.40;58.80;;;;;;5027464;28;45645;-80
2023/06/08 13:52:19;;;;;;;;;;;24.40;59.30;;;;;;5045260;28;43602;-80
2023/06/08 13:54:46;;;;;;;;;;;24.40;58.70;;;;;;5045474;28;42924;-79
2023/06/08 13:57:12;;;;;;;;;;;24.40;58.50;;;;;;5045384;28;42987;-80
2023/06/08 13:59:37;;;;;;;;;;;24.40;59.10;;;;;;5031544;28;43143;-79
2023/06/08 14:02:03;;;;;;;;;;;24.40;59.10;;;;;;5039089;28;43095;-80
2023/06/08 14:04:29;;;;;;;;;;;24.40;59.10;;;;;;5045144;28;43533;-80
2023/06/08 14:06:54;;;;;;;;;;;24.40;58.70;;;;;;5026801;28;42911;-79
2023/06/08 14:09:20;;;;;;;;;;;24.40;59.30;;;;;;5044379;28;42889;-80
2023/06/08 14:11:52;;;;;;;;;;;24.40;59.30;;;;;;5043601;28;42980;-80
2023/06/08 14:14:18;;;;;;;;;;;24.40;58.70;;;;;;5047498;28;42884;-81
2023/06/08 14:16:44;;;;;;;;;;;24.40;59.40;;;;;;5030465;28;42934;-80
2023/06/08 14:19:10;;;;;;;;;;;24.40;59.30;;;;;;5040692;28;43632;-80